sensor_id;sensor_type;location;lat;lon;timestamp;temperature;humidity
59007;DHT22;44792;52.760;6.726;2023-03-04T00:02:20;6.30;99.90
59007;DHT22;44792;52.760;6.726;2023-03-04T00:04:45;6.30;99.90
59007;DHT22;44792;52.760;6.726;2023-03-04T00:07:11;6.30;99.90
59007;DHT22;44792;52.760;6.726;2023-03-04T00:09:45;6.30;99.90
59007;DHT22;44792;52.760;6.726;2023-03-04T00:12:11;6.30;99.90
59007;DHT22;44792;52.760;6.726;2023-03-04T00:14:36;6.40;99.90
59007;DHT22;44792;52.760;6.726;2023-03-04T00:17:02;6.40;99.90
59007;DHT22;44792;52.760;6.726;2023-03-04T00:19:29;6.30;99.90
59007;DHT22;44792;52.760;6.726;2023-03-04T00:21:55;6.40;99.90
59007;DHT22;44792;52.760;6.726;2023-03-04T00:24:21;6.30;99.90
59007;DHT22;44792;52.760;6.726;2023-03-04T00:26:46;6.30;99.90
59007;DHT22;44792;52.760;6.726;2023-03-04T00:29:12;6.40;99.90
59007;DHT22;44792;52.760;6.726;2023-03-04T00:31:38;6.40;99.90
59007;DHT22;44792;52.760;6.726;2023-03-04T00:34:03;6.40;99.90
59007;DHT22;44792;52.760;6.726;2023-03-04T00:36:29;6.30;99.90
59007;DHT22;44792;52.760;6.726;2023-03-04T00:38:54;6.40;99.90
59007;DHT22;44792;52.760;6.726;2023-03-04T00:41:20;6.40;99.90
59007;DHT22;44792;52.760;6.726;2023-03-04T00:43:45;6.40;99.90
59007;DHT22;44792;52.760;6.726;2023-03-04T00:46:11;6.30;99.90
59007;DHT22;44792;52.760;6.726;2023-03-04T00:48:37;6.30;99.90
59007;DHT22;44792;52.760;6.726;2023-03-04T00:51:03;6.30;99.90
59007;DHT22;44792;52.760;6.726;2023-03-04T00:53:29;6.30;99.90
59007;DHT22;44792;52.760;6.726;2023-03-04T00:55:54;6.40;99.90
59007;DHT22;44792;52.760;6.726;2023-03-04T00:58:20;6.30;99.90
59007;DHT22;44792;52.760;6.726;2023-03-04T01:00:46;6.30;99.90
59007;DHT22;44792;52.760;6.726;2023-03-04T01:03:11;6.30;99.90
59007;DHT22;44792;52.760;6.726;2023-03-04T01:05:37;6.30;99.90
59007;DHT22;44792;52.760;6.726;2023-03-04T01:08:03;6.30;99.90
59007;DHT22;44792;52.760;6.726;2023-03-04T01:10:29;6.30;99.90
59007;DHT22;44792;52.760;6.726;2023-03-04T01:12:55;6.30;99.90
59007;DHT22;44792;52.760;6.726;2023-03-04T01:15:20;6.30;99.90
59007;DHT22;44792;52.760;6.726;2023-03-04T01:17:46;6.30;99.90
59007;DHT22;44792;52.760;6.726;2023-03-04T01:20:12;6.30;99.90
59007;DHT22;44792;52.760;6.726;2023-03-04T01:22:37;6.30;99.90
59007;DHT22;44792;52.760;6.726;2023-03-04T01:25:04;6.30;99.90
59007;DHT22;44792;52.760;6.726;2023-03-04T01:27:29;6.30;99.90
59007;DHT22;44792;52.760;6.726;2023-03-04T01:29:55;6.30;99.90
59007;DHT22;44792;52.760;6.726;2023-03-04T01:32:20;6.30;99.90
59007;DHT22;44792;52.760;6.726;2023-03-04T01:34:46;6.30;99.90
59007;DHT22;44792;52.760;6.726;2023-03-04T01:37:12;6.30;99.90
59007;DHT22;44792;52.760;6.726;2023-03-04T01:39:40;6.30;99.90
59007;DHT22;44792;52.760;6.726;2023-03-04T01:42:15;6.30;99.90
59007;DHT22;44792;52.760;6.726;2023-03-04T01:44:43;6.30;99.90
59007;DHT22;44792;52.760;6.726;2023-03-04T01:47:09;6.30;99.90
59007;DHT22;44792;52.760;6.726;2023-03-04T01:49:35;6.20;99.90
59007;DHT22;44792;52.760;6.726;2023-03-04T01:52:01;6.30;99.90
59007;DHT22;44792;52.760;6.726;2023-03-04T01:54:26;6.30;99.90
59007;DHT22;44792;52.760;6.726;2023-03-04T01:56:52;6.20;99.90
59007;DHT22;44792;52.760;6.726;2023-03-04T01:59:23;6.30;99.90
59007;DHT22;44792;52.760;6.726;2023-03-04T02:01:58;6.30;99.90
59007;DHT22;44792;52.760;6.726;2023-03-04T02:04:26;6.30;99.90
59007;DHT22;44792;52.760;6.726;2023-03-04T02:06:52;6.30;99.90
59007;DHT22;44792;52.760;6.726;2023-03-04T02:09:18;6.30;99.90
59007;DHT22;44792;52.760;6.726;2023-03-04T02:11:45;6.30;99.90
59007;DHT22;44792;52.760;6.726;2023-03-04T02:14:11;6.30;99.90
59007;DHT22;44792;52.760;6.726;2023-03-04T02:16:38;6.30;99.90
59007;DHT22;44792;52.760;6.726;2023-03-04T02:19:15;6.30;99.90
59007;DHT22;44792;52.760;6.726;2023-03-04T02:21:43;6.30;99.90
59007;DHT22;44792;52.760;6.726;2023-03-04T02:24:30;6.30;99.90
59007;DHT22;44792;52.760;6.726;2023-03-04T02:26:57;6.20;99.90
59007;DHT22;44792;52.760;6.726;2023-03-04T02:29:23;6.20;99.90
59007;DHT22;44792;52.760;6.726;2023-03-04T02:31:50;6.20;99.90
59007;DHT22;44792;52.760;6.726;2023-03-04T02:34:18;6.20;99.90
59007;DHT22;44792;52.760;6.726;2023-03-04T02:36:45;6.20;99.90
59007;DHT22;44792;52.760;6.726;2023-03-04T02:41:44;6.20;99.90
59007;DHT22;44792;52.760;6.726;2023-03-04T02:44:24;6.20;99.90
59007;DHT22;44792;52.760;6.726;2023-03-04T02:46:51;6.20;99.90
59007;DHT22;44792;52.760;6.726;2023-03-04T02:49:17;6.20;99.90
59007;DHT22;44792;52.760;6.726;2023-03-04T02:51:43;6.30;99.90
59007;DHT22;44792;52.760;6.726;2023-03-04T02:54:17;6.20;99.90
59007;DHT22;44792;52.760;6.726;2023-03-04T02:56:46;6.30;99.90
59007;DHT22;44792;52.760;6.726;2023-03-04T02:59:12;6.20;99.90
59007;DHT22;44792;52.760;6.726;2023-03-04T03:01:38;6.20;99.90
59007;DHT22;44792;52.760;6.726;2023-03-04T03:04:03;6.10;99.90
59007;DHT22;44792;52.760;6.726;2023-03-04T03:06:29;6.10;99.90
59007;DHT22;44792;52.760;6.726;2023-03-04T03:08:54;6.10;99.90
59007;DHT22;44792;52.760;6.726;2023-03-04T03:11:20;6.10;99.90
59007;DHT22;44792;52.760;6.726;2023-03-04T03:13:45;6.10;99.90
59007;DHT22;44792;52.760;6.726;2023-03-04T03:16:11;6.10;99.90
59007;DHT22;44792;52.760;6.726;2023-03-04T03:18:37;6.10;99.90
59007;DHT22;44792;52.760;6.726;2023-03-04T03:21:02;6.10;99.90
59007;DHT22;44792;52.760;6.726;2023-03-04T03:23:28;6.10;99.90
59007;DHT22;44792;52.760;6.726;2023-03-04T03:25:54;6.10;99.90
59007;DHT22;44792;52.760;6.726;2023-03-04T03:28:19;6.10;99.90
59007;DHT22;44792;52.760;6.726;2023-03-04T03:30:45;6.10;99.90
59007;DHT22;44792;52.760;6.726;2023-03-04T03:33:10;6.10;99.90
59007;DHT22;44792;52.760;6.726;2023-03-04T03:35:36;6.10;99.90
59007;DHT22;44792;52.760;6.726;2023-03-04T03:38:01;6.10;99.90
59007;DHT22;44792;52.760;6.726;2023-03-04T03:40:27;6.10;99.90
59007;DHT22;44792;52.760;6.726;2023-03-04T03:42:53;6.10;99.90
59007;DHT22;44792;52.760;6.726;2023-03-04T03:45:18;6.20;99.90
59007;DHT22;44792;52.760;6.726;2023-03-04T03:47:44;6.20;99.90
59007;DHT22;44792;52.760;6.726;2023-03-04T03:50:10;6.10;99.90
59007;DHT22;44792;52.760;6.726;2023-03-04T03:52:35;6.20;99.90
59007;DHT22;44792;52.760;6.726;2023-03-04T03:55:01;6.20;99.90
59007;DHT22;44792;52.760;6.726;2023-03-04T03:57:28;6.20;99.90
59007;DHT22;44792;52.760;6.726;2023-03-04T03:59:54;6.20;99.90
59007;DHT22;44792;52.760;6.726;2023-03-04T04:02:20;6.20;99.90
59007;DHT22;44792;52.760;6.726;2023-03-04T04:04:46;6.20;99.90
59007;DHT22;44792;52.760;6.726;2023-03-04T04:07:12;6.10;99.90
59007;DHT22;44792;52.760;6.726;2023-03-04T04:09:38;6.20;99.90
59007;DHT22;44792;52.760;6.726;2023-03-04T04:12:05;6.20;99.90
59007;DHT22;44792;52.760;6.726;2023-03-04T04:14:31;6.20;99.90
59007;DHT22;44792;52.760;6.726;2023-03-04T04:16:57;6.20;99.90
59007;DHT22;44792;52.760;6.726;2023-03-04T04:19:22;6.20;99.90
59007;DHT22;44792;52.760;6.726;2023-03-04T04:21:48;6.20;99.90
59007;DHT22;44792;52.760;6.726;2023-03-04T04:24:14;6.20;99.90
59007;DHT22;44792;52.760;6.726;2023-03-04T04:26:40;6.20;99.90
59007;DHT22;44792;52.760;6.726;2023-03-04T04:29:07;6.20;99.90
59007;DHT22;44792;52.760;6.726;2023-03-04T04:31:34;6.10;99.90
59007;DHT22;44792;52.760;6.726;2023-03-04T04:33:59;6.20;99.90
59007;DHT22;44792;52.760;6.726;2023-03-04T04:36:25;6.20;99.90
59007;DHT22;44792;52.760;6.726;2023-03-04T04:38:51;6.10;99.90
59007;DHT22;44792;52.760;6.726;2023-03-04T04:41:23;6.20;99.90
59007;DHT22;44792;52.760;6.726;2023-03-04T04:43:49;6.10;99.90
59007;DHT22;44792;52.760;6.726;2023-03-04T04:46:15;6.10;99.90
59007;DHT22;44792;52.760;6.726;2023-03-04T04:48:41;6.10;99.90
59007;DHT22;44792;52.760;6.726;2023-03-04T04:51:07;6.10;99.90
59007;DHT22;44792;52.760;6.726;2023-03-04T04:53:33;6.10;99.90
59007;DHT22;44792;52.760;6.726;2023-03-04T04:55:58;6.20;99.90
59007;DHT22;44792;52.760;6.726;2023-03-04T04:58:24;6.20;99.90
59007;DHT22;44792;52.760;6.726;2023-03-04T05:00:50;6.10;99.90
59007;DHT22;44792;52.760;6.726;2023-03-04T05:03:16;6.10;99.90
59007;DHT22;44792;52.760;6.726;2023-03-04T05:05:41;6.10;99.90
59007;DHT22;44792;52.760;6.726;2023-03-04T05:08:07;6.10;99.90
59007;DHT22;44792;52.760;6.726;2023-03-04T05:10:33;6.10;99.90
59007;DHT22;44792;52.760;6.726;2023-03-04T05:12:58;6.10;99.90
59007;DHT22;44792;52.760;6.726;2023-03-04T05:15:24;6.10;99.90
59007;DHT22;44792;52.760;6.726;2023-03-04T05:17:49;6.10;99.90
59007;DHT22;44792;52.760;6.726;2023-03-04T05:20:15;6.00;99.90
59007;DHT22;44792;52.760;6.726;2023-03-04T05:22:40;6.10;99.90
59007;DHT22;44792;52.760;6.726;2023-03-04T05:25:06;6.10;99.90
59007;DHT22;44792;52.760;6.726;2023-03-04T05:27:32;6.10;99.90
59007;DHT22;44792;52.760;6.726;2023-03-04T05:29:58;6.10;99.90
59007;DHT22;44792;52.760;6.726;2023-03-04T05:32:27;6.10;99.90
59007;DHT22;44792;52.760;6.726;2023-03-04T05:34:52;6.10;99.90
59007;DHT22;44792;52.760;6.726;2023-03-04T05:37:18;6.10;99.90
59007;DHT22;44792;52.760;6.726;2023-03-04T05:39:43;6.10;99.90
59007;DHT22;44792;52.760;6.726;2023-03-04T05:42:09;6.10;99.90
59007;DHT22;44792;52.760;6.726;2023-03-04T05:44:35;6.10;99.90
59007;DHT22;44792;52.760;6.726;2023-03-04T05:47:00;6.10;99.90
59007;DHT22;44792;52.760;6.726;2023-03-04T05:49:26;6.10;99.90
59007;DHT22;44792;52.760;6.726;2023-03-04T05:51:52;6.00;99.90
59007;DHT22;44792;52.760;6.726;2023-03-04T05:54:17;6.00;99.90
59007;DHT22;44792;52.760;6.726;2023-03-04T05:56:44;6.00;99.90
59007;DHT22;44792;52.760;6.726;2023-03-04T05:59:09;6.00;99.90
59007;DHT22;44792;52.760;6.726;2023-03-04T06:01:35;6.00;99.90
59007;DHT22;44792;52.760;6.726;2023-03-04T06:04:01;6.00;99.90
59007;DHT22;44792;52.760;6.726;2023-03-04T06:06:26;6.00;99.90
59007;DHT22;44792;52.760;6.726;2023-03-04T06:08:52;6.10;99.90
59007;DHT22;44792;52.760;6.726;2023-03-04T06:11:17;6.00;99.90
59007;DHT22;44792;52.760;6.726;2023-03-04T06:13:43;6.00;99.90
59007;DHT22;44792;52.760;6.726;2023-03-04T06:16:09;6.00;99.90
59007;DHT22;44792;52.760;6.726;2023-03-04T06:18:35;6.00;99.90
59007;DHT22;44792;52.760;6.726;2023-03-04T06:21:02;6.00;99.90
59007;DHT22;44792;52.760;6.726;2023-03-04T06:23:29;6.00;99.90
59007;DHT22;44792;52.760;6.726;2023-03-04T06:25:56;6.00;99.90
59007;DHT22;44792;52.760;6.726;2023-03-04T06:28:23;6.00;99.90
59007;DHT22;44792;52.760;6.726;2023-03-04T06:30:51;6.00;99.90
59007;DHT22;44792;52.760;6.726;2023-03-04T06:33:17;6.00;99.90
59007;DHT22;44792;52.760;6.726;2023-03-04T06:35:43;6.00;99.90
59007;DHT22;44792;52.760;6.726;2023-03-04T06:38:09;6.00;99.90
59007;DHT22;44792;52.760;6.726;2023-03-04T06:40:34;6.00;99.90
59007;DHT22;44792;52.760;6.726;2023-03-04T06:43:00;6.00;99.90
59007;DHT22;44792;52.760;6.726;2023-03-04T06:45:26;5.90;99.90
59007;DHT22;44792;52.760;6.726;2023-03-04T06:47:51;6.00;99.90
59007;DHT22;44792;52.760;6.726;2023-03-04T06:50:17;5.90;99.90
59007;DHT22;44792;52.760;6.726;2023-03-04T06:52:42;5.90;99.90
59007;DHT22;44792;52.760;6.726;2023-03-04T06:55:08;5.90;99.90
59007;DHT22;44792;52.760;6.726;2023-03-04T06:57:34;6.00;99.90
59007;DHT22;44792;52.760;6.726;2023-03-04T07:00:00;6.00;99.90
59007;DHT22;44792;52.760;6.726;2023-03-04T07:02:27;6.00;99.90
59007;DHT22;44792;52.760;6.726;2023-03-04T07:04:53;6.00;99.90
59007;DHT22;44792;52.760;6.726;2023-03-04T07:07:18;6.00;99.90
59007;DHT22;44792;52.760;6.726;2023-03-04T07:09:44;6.10;99.90
59007;DHT22;44792;52.760;6.726;2023-03-04T07:12:10;6.10;99.90
59007;DHT22;44792;52.760;6.726;2023-03-04T07:14:35;6.10;99.90
59007;DHT22;44792;52.760;6.726;2023-03-04T07:17:01;6.10;99.90
59007;DHT22;44792;52.760;6.726;2023-03-04T07:19:26;6.10;99.90
59007;DHT22;44792;52.760;6.726;2023-03-04T07:21:52;6.10;99.90
59007;DHT22;44792;52.760;6.726;2023-03-04T07:24:18;6.10;99.90
59007;DHT22;44792;52.760;6.726;2023-03-04T07:26:43;6.10;99.90
59007;DHT22;44792;52.760;6.726;2023-03-04T07:29:09;6.10;99.90
59007;DHT22;44792;52.760;6.726;2023-03-04T07:31:35;6.20;99.90
59007;DHT22;44792;52.760;6.726;2023-03-04T07:34:03;6.10;99.90
59007;DHT22;44792;52.760;6.726;2023-03-04T07:36:30;6.10;99.90
59007;DHT22;44792;52.760;6.726;2023-03-04T07:38:56;6.20;99.90
59007;DHT22;44792;52.760;6.726;2023-03-04T07:41:23;6.20;99.90
59007;DHT22;44792;52.760;6.726;2023-03-04T07:43:49;6.20;99.90
59007;DHT22;44792;52.760;6.726;2023-03-04T07:46:15;6.20;99.90
59007;DHT22;44792;52.760;6.726;2023-03-04T07:48:41;6.30;99.90
59007;DHT22;44792;52.760;6.726;2023-03-04T07:51:10;6.30;99.90
59007;DHT22;44792;52.760;6.726;2023-03-04T07:53:38;6.30;99.90
59007;DHT22;44792;52.760;6.726;2023-03-04T07:56:05;6.40;99.90
59007;DHT22;44792;52.760;6.726;2023-03-04T07:58:31;6.40;99.90
59007;DHT22;44792;52.760;6.726;2023-03-04T08:00:58;6.40;99.90
59007;DHT22;44792;52.760;6.726;2023-03-04T08:03:23;6.50;99.90
59007;DHT22;44792;52.760;6.726;2023-03-04T08:05:50;6.40;99.90
59007;DHT22;44792;52.760;6.726;2023-03-04T08:08:16;6.50;99.90
59007;DHT22;44792;52.760;6.726;2023-03-04T08:10:42;6.50;99.90
59007;DHT22;44792;52.760;6.726;2023-03-04T08:13:08;6.60;99.90
59007;DHT22;44792;52.760;6.726;2023-03-04T08:15:33;6.60;99.90
59007;DHT22;44792;52.760;6.726;2023-03-04T08:18:00;6.60;99.90
59007;DHT22;44792;52.760;6.726;2023-03-04T08:20:26;6.60;99.90
59007;DHT22;44792;52.760;6.726;2023-03-04T08:22:52;6.70;99.90
59007;DHT22;44792;52.760;6.726;2023-03-04T08:25:18;6.70;99.90
59007;DHT22;44792;52.760;6.726;2023-03-04T08:27:43;6.70;99.90
59007;DHT22;44792;52.760;6.726;2023-03-04T08:30:10;6.70;99.90
59007;DHT22;44792;52.760;6.726;2023-03-04T08:32:35;6.60;99.90
59007;DHT22;44792;52.760;6.726;2023-03-04T08:35:01;6.70;99.90
59007;DHT22;44792;52.760;6.726;2023-03-04T08:37:28;6.70;99.90
59007;DHT22;44792;52.760;6.726;2023-03-04T08:39:54;6.60;99.90
59007;DHT22;44792;52.760;6.726;2023-03-04T08:42:19;6.60;99.90
59007;DHT22;44792;52.760;6.726;2023-03-04T08:44:45;6.70;99.90
59007;DHT22;44792;52.760;6.726;2023-03-04T08:47:11;6.70;99.90
59007;DHT22;44792;52.760;6.726;2023-03-04T08:49:37;6.70;99.90
59007;DHT22;44792;52.760;6.726;2023-03-04T08:52:03;6.70;99.90
59007;DHT22;44792;52.760;6.726;2023-03-04T08:54:28;6.70;99.90
59007;DHT22;44792;52.760;6.726;2023-03-04T08:56:54;6.80;99.90
59007;DHT22;44792;52.760;6.726;2023-03-04T08:59:19;6.80;99.90
59007;DHT22;44792;52.760;6.726;2023-03-04T09:01:45;6.90;99.90
59007;DHT22;44792;52.760;6.726;2023-03-04T09:04:11;6.90;99.90
59007;DHT22;44792;52.760;6.726;2023-03-04T09:06:36;7.00;99.90
59007;DHT22;44792;52.760;6.726;2023-03-04T09:09:03;7.00;99.90
59007;DHT22;44792;52.760;6.726;2023-03-04T09:11:29;7.00;99.90
59007;DHT22;44792;52.760;6.726;2023-03-04T09:13:55;7.00;99.90
59007;DHT22;44792;52.760;6.726;2023-03-04T09:16:20;7.00;99.90
59007;DHT22;44792;52.760;6.726;2023-03-04T09:18:46;7.00;99.90
59007;DHT22;44792;52.760;6.726;2023-03-04T09:21:12;7.00;99.90
59007;DHT22;44792;52.760;6.726;2023-03-04T09:23:38;6.90;99.90
59007;DHT22;44792;52.760;6.726;2023-03-04T09:28:39;6.90;99.90
59007;DHT22;44792;52.760;6.726;2023-03-04T09:31:13;6.90;99.90
59007;DHT22;44792;52.760;6.726;2023-03-04T09:33:40;7.00;99.90
59007;DHT22;44792;52.760;6.726;2023-03-04T09:36:09;7.00;99.90
59007;DHT22;44792;52.760;6.726;2023-03-04T09:38:35;7.00;99.90
59007;DHT22;44792;52.760;6.726;2023-03-04T09:41:06;7.10;99.90
59007;DHT22;44792;52.760;6.726;2023-03-04T09:43:32;7.10;99.90
59007;DHT22;44792;52.760;6.726;2023-03-04T09:46:02;7.20;99.90
59007;DHT22;44792;52.760;6.726;2023-03-04T09:48:37;7.20;99.90
59007;DHT22;44792;52.760;6.726;2023-03-04T09:56:22;7.30;99.90
59007;DHT22;44792;52.760;6.726;2023-03-04T10:01:23;7.10;99.90
59007;DHT22;44792;52.760;6.726;2023-03-04T10:03:58;7.10;99.90
59007;DHT22;44792;52.760;6.726;2023-03-04T10:06:24;7.20;99.90
59007;DHT22;44792;52.760;6.726;2023-03-04T10:09:03;7.20;99.90
59007;DHT22;44792;52.760;6.726;2023-03-04T10:12:21;7.10;99.90
59007;DHT22;44792;52.760;6.726;2023-03-04T10:14:48;7.20;99.90
59007;DHT22;44792;52.760;6.726;2023-03-04T10:17:23;7.20;99.90
59007;DHT22;44792;52.760;6.726;2023-03-04T10:20:25;7.10;99.90
59007;DHT22;44792;52.760;6.726;2023-03-04T10:22:58;7.20;99.90
59007;DHT22;44792;52.760;6.726;2023-03-04T10:25:31;7.20;99.90
59007;DHT22;44792;52.760;6.726;2023-03-04T10:28:04;7.30;99.90
59007;DHT22;44792;52.760;6.726;2023-03-04T10:30:54;7.30;99.90
59007;DHT22;44792;52.760;6.726;2023-03-04T10:33:25;7.30;99.90
59007;DHT22;44792;52.760;6.726;2023-03-04T10:39:00;7.40;99.90
59007;DHT22;44792;52.760;6.726;2023-03-04T10:41:28;7.30;99.90
59007;DHT22;44792;52.760;6.726;2023-03-04T10:46:44;7.40;99.90
59007;DHT22;44792;52.760;6.726;2023-03-04T10:49:11;7.40;99.90
59007;DHT22;44792;52.760;6.726;2023-03-04T10:51:45;7.40;99.90
59007;DHT22;44792;52.760;6.726;2023-03-04T10:57:16;7.20;99.90
59007;DHT22;44792;52.760;6.726;2023-03-04T11:05:34;7.30;99.90
59007;DHT22;44792;52.760;6.726;2023-03-04T11:07:52;7.40;99.90
59007;DHT22;44792;52.760;6.726;2023-03-04T11:15:29;7.60;99.90
59007;DHT22;44792;52.760;6.726;2023-03-04T11:18:03;7.60;99.90
59007;DHT22;44792;52.760;6.726;2023-03-04T11:23:05;7.60;99.90
59007;DHT22;44792;52.760;6.726;2023-03-04T11:25:39;7.70;99.90
59007;DHT22;44792;52.760;6.726;2023-03-04T11:31:24;7.50;99.90
59007;DHT22;44792;52.760;6.726;2023-03-04T11:34:02;7.40;99.90
59007;DHT22;44792;52.760;6.726;2023-03-04T11:36:33;7.40;99.90
59007;DHT22;44792;52.760;6.726;2023-03-04T11:39:02;7.40;99.90
59007;DHT22;44792;52.760;6.726;2023-03-04T11:41:37;7.50;99.90
59007;DHT22;44792;52.760;6.726;2023-03-04T11:44:06;7.50;99.90
59007;DHT22;44792;52.760;6.726;2023-03-04T11:49:30;7.50;99.90
59007;DHT22;44792;52.760;6.726;2023-03-04T11:52:08;7.60;99.90
59007;DHT22;44792;52.760;6.726;2023-03-04T12:03:24;7.40;99.90
59007;DHT22;44792;52.760;6.726;2023-03-04T12:08:42;7.50;99.90
59007;DHT22;44792;52.760;6.726;2023-03-04T12:11:33;7.50;99.90
59007;DHT22;44792;52.760;6.726;2023-03-04T12:17:22;7.60;99.90
59007;DHT22;44792;52.760;6.726;2023-03-04T12:22:44;7.70;99.90
59007;DHT22;44792;52.760;6.726;2023-03-04T12:31:02;7.70;99.90
59007;DHT22;44792;52.760;6.726;2023-03-04T12:36:42;7.70;99.90
59007;DHT22;44792;52.760;6.726;2023-03-04T12:42:21;7.90;99.90
59007;DHT22;44792;52.760;6.726;2023-03-04T12:53:32;8.10;99.90
59007;DHT22;44792;52.760;6.726;2023-03-04T12:56:02;8.20;99.90
59007;DHT22;44792;52.760;6.726;2023-03-04T12:58:31;8.20;99.90
59007;DHT22;44792;52.760;6.726;2023-03-04T13:01:23;8.10;99.90
59007;DHT22;44792;52.760;6.726;2023-03-04T13:07:07;7.90;99.90
59007;DHT22;44792;52.760;6.726;2023-03-04T13:12:21;7.60;99.90
59007;DHT22;44792;52.760;6.726;2023-03-04T13:15:16;7.70;99.90
59007;DHT22;44792;52.760;6.726;2023-03-04T13:17:52;7.60;99.90
59007;DHT22;44792;52.760;6.726;2023-03-04T13:20:35;7.70;99.90
59007;DHT22;44792;52.760;6.726;2023-03-04T13:28:31;7.90;99.90
59007;DHT22;44792;52.760;6.726;2023-03-04T13:36:01;7.90;99.90
59007;DHT22;44792;52.760;6.726;2023-03-04T13:41:13;7.80;99.90
59007;DHT22;44792;52.760;6.726;2023-03-04T13:51:28;7.60;99.90
59007;DHT22;44792;52.760;6.726;2023-03-04T13:56:21;7.40;99.90
59007;DHT22;44792;52.760;6.726;2023-03-04T14:06:53;7.50;99.90
59007;DHT22;44792;52.760;6.726;2023-03-04T14:09:24;7.40;99.90
59007;DHT22;44792;52.760;6.726;2023-03-04T14:11:52;7.50;99.90
59007;DHT22;44792;52.760;6.726;2023-03-04T14:14:27;7.50;99.90
59007;DHT22;44792;52.760;6.726;2023-03-04T14:17:26;7.60;99.90
59007;DHT22;44792;52.760;6.726;2023-03-04T14:19:52;7.50;99.90
59007;DHT22;44792;52.760;6.726;2023-03-04T14:22:25;7.50;99.90
59007;DHT22;44792;52.760;6.726;2023-03-04T14:25:18;7.50;99.90
59007;DHT22;44792;52.760;6.726;2023-03-04T14:27:45;7.50;99.90
59007;DHT22;44792;52.760;6.726;2023-03-04T14:30:30;7.40;99.90
59007;DHT22;44792;52.760;6.726;2023-03-04T14:32:57;7.40;99.90
59007;DHT22;44792;52.760;6.726;2023-03-04T14:35:28;7.30;99.90
59007;DHT22;44792;52.760;6.726;2023-03-04T14:38:03;7.30;99.90
59007;DHT22;44792;52.760;6.726;2023-03-04T14:40:40;7.30;99.90
59007;DHT22;44792;52.760;6.726;2023-03-04T14:43:17;7.30;99.90
59007;DHT22;44792;52.760;6.726;2023-03-04T14:45:45;7.20;99.90
59007;DHT22;44792;52.760;6.726;2023-03-04T14:48:19;7.20;99.90
59007;DHT22;44792;52.760;6.726;2023-03-04T14:50:50;7.20;99.90
59007;DHT22;44792;52.760;6.726;2023-03-04T14:53:18;7.20;99.90
59007;DHT22;44792;52.760;6.726;2023-03-04T14:56:04;7.10;99.90
59007;DHT22;44792;52.760;6.726;2023-03-04T14:58:37;7.10;99.90
59007;DHT22;44792;52.760;6.726;2023-03-04T15:03:39;7.20;99.90
59007;DHT22;44792;52.760;6.726;2023-03-04T15:06:23;7.10;99.90
59007;DHT22;44792;52.760;6.726;2023-03-04T15:09:06;7.10;99.90
59007;DHT22;44792;52.760;6.726;2023-03-04T15:11:47;7.10;99.90
59007;DHT22;44792;52.760;6.726;2023-03-04T15:14:42;7.10;99.90
59007;DHT22;44792;52.760;6.726;2023-03-04T15:17:43;7.10;99.90
59007;DHT22;44792;52.760;6.726;2023-03-04T15:22:59;7.20;99.90
59007;DHT22;44792;52.760;6.726;2023-03-04T15:25:25;7.20;99.90
59007;DHT22;44792;52.760;6.726;2023-03-04T15:27:51;7.20;99.90
59007;DHT22;44792;52.760;6.726;2023-03-04T15:30:22;7.20;99.90
59007;DHT22;44792;52.760;6.726;2023-03-04T15:32:49;7.20;99.90
59007;DHT22;44792;52.760;6.726;2023-03-04T15:35:16;7.20;99.90
59007;DHT22;44792;52.760;6.726;2023-03-04T15:37:43;7.10;99.90
59007;DHT22;44792;52.760;6.726;2023-03-04T15:40:13;7.20;99.90
59007;DHT22;44792;52.760;6.726;2023-03-04T15:42:39;7.10;99.90
59007;DHT22;44792;52.760;6.726;2023-03-04T15:45:25;7.10;99.90
59007;DHT22;44792;52.760;6.726;2023-03-04T15:47:51;7.10;99.90
59007;DHT22;44792;52.760;6.726;2023-03-04T15:50:17;7.10;99.90
59007;DHT22;44792;52.760;6.726;2023-03-04T15:52:43;7.00;99.90
59007;DHT22;44792;52.760;6.726;2023-03-04T15:55:14;7.00;99.90
59007;DHT22;44792;52.760;6.726;2023-03-04T15:57:41;7.00;99.90
59007;DHT22;44792;52.760;6.726;2023-03-04T16:00:09;7.00;99.90
59007;DHT22;44792;52.760;6.726;2023-03-04T16:02:34;7.00;99.90
59007;DHT22;44792;52.760;6.726;2023-03-04T16:05:00;7.00;99.90
59007;DHT22;44792;52.760;6.726;2023-03-04T16:07:28;7.00;99.90
59007;DHT22;44792;52.760;6.726;2023-03-04T16:09:57;6.90;99.90
59007;DHT22;44792;52.760;6.726;2023-03-04T16:12:25;6.90;99.90
59007;DHT22;44792;52.760;6.726;2023-03-04T16:14:51;6.80;99.90
59007;DHT22;44792;52.760;6.726;2023-03-04T16:17:17;6.80;99.90
59007;DHT22;44792;52.760;6.726;2023-03-04T16:19:43;6.70;99.90
59007;DHT22;44792;52.760;6.726;2023-03-04T16:22:13;6.60;99.90
59007;DHT22;44792;52.760;6.726;2023-03-04T16:24:41;6.60;99.90
59007;DHT22;44792;52.760;6.726;2023-03-04T16:27:11;6.60;99.90
59007;DHT22;44792;52.760;6.726;2023-03-04T16:29:38;6.50;99.90
59007;DHT22;44792;52.760;6.726;2023-03-04T16:32:04;6.50;99.90
59007;DHT22;44792;52.760;6.726;2023-03-04T16:34:29;6.50;99.90
59007;DHT22;44792;52.760;6.726;2023-03-04T16:36:56;6.40;99.90
59007;DHT22;44792;52.760;6.726;2023-03-04T16:39:23;6.40;99.90
59007;DHT22;44792;52.760;6.726;2023-03-04T16:41:50;6.40;99.90
59007;DHT22;44792;52.760;6.726;2023-03-04T16:44:16;6.40;99.90
59007;DHT22;44792;52.760;6.726;2023-03-04T16:46:42;6.40;99.90
59007;DHT22;44792;52.760;6.726;2023-03-04T16:49:07;6.40;99.90
59007;DHT22;44792;52.760;6.726;2023-03-04T16:51:39;6.40;99.90
59007;DHT22;44792;52.760;6.726;2023-03-04T16:54:06;6.30;99.90
59007;DHT22;44792;52.760;6.726;2023-03-04T16:56:34;6.30;99.90
59007;DHT22;44792;52.760;6.726;2023-03-04T16:58:59;6.20;99.90
59007;DHT22;44792;52.760;6.726;2023-03-04T17:01:27;6.20;99.90
59007;DHT22;44792;52.760;6.726;2023-03-04T17:03:53;6.10;99.90
59007;DHT22;44792;52.760;6.726;2023-03-04T17:06:19;5.90;99.90
59007;DHT22;44792;52.760;6.726;2023-03-04T17:08:45;5.80;99.90
59007;DHT22;44792;52.760;6.726;2023-03-04T17:11:16;5.80;99.90
59007;DHT22;44792;52.760;6.726;2023-03-04T17:13:43;5.80;99.90
59007;DHT22;44792;52.760;6.726;2023-03-04T17:16:10;5.80;99.90
59007;DHT22;44792;52.760;6.726;2023-03-04T17:18:36;5.80;99.90
59007;DHT22;44792;52.760;6.726;2023-03-04T17:21:05;5.80;99.90
59007;DHT22;44792;52.760;6.726;2023-03-04T17:23:32;5.80;99.90
59007;DHT22;44792;52.760;6.726;2023-03-04T17:25:59;5.90;99.90
59007;DHT22;44792;52.760;6.726;2023-03-04T17:28:25;5.80;99.90
59007;DHT22;44792;52.760;6.726;2023-03-04T17:30:51;5.90;99.90
59007;DHT22;44792;52.760;6.726;2023-03-04T17:33:17;5.80;99.90
59007;DHT22;44792;52.760;6.726;2023-03-04T17:35:43;5.80;99.90
59007;DHT22;44792;52.760;6.726;2023-03-04T17:38:11;5.80;99.90
59007;DHT22;44792;52.760;6.726;2023-03-04T17:40:37;5.80;99.90
59007;DHT22;44792;52.760;6.726;2023-03-04T17:43:03;5.80;99.90
59007;DHT22;44792;52.760;6.726;2023-03-04T17:45:32;5.80;99.90
59007;DHT22;44792;52.760;6.726;2023-03-04T17:47:57;5.80;99.90
59007;DHT22;44792;52.760;6.726;2023-03-04T17:50:23;5.80;99.90
59007;DHT22;44792;52.760;6.726;2023-03-04T17:52:49;5.70;99.90
59007;DHT22;44792;52.760;6.726;2023-03-04T17:55:14;5.70;99.90